Portada
METAR-TAF:

METAR-TAF

Aeropuertos :

Trípoli, Libia

Aeropuerto Internacional Mitiga

latitud: 32-54N, longitud: 13-17E, altitud: 11 m

Observación

El informe se hizo hace 1 hora y 14 minutos, a las 05:50 UTC
Viento 1 kt del este-noreste
Temperatura 25°C
Humedad 69%
Presión 1019 hPa
Visibilidad: 8000 m
Cielo despejado

METAR: HLLM 240550Z 07001KT 8000 SKC 25/19 Q1019

Hora: 09:04 (07:04 UTC)

Pronóstico

El informe se hizo hace 26 horas y 4 minutos, a las 05:00 UTC
Pronóstico válido del 23 a las 06 UTC al 24 a las 06 UTC
Viento 14 kt del este
Visibilidad: 8000 m
Evolucionando progresivamente
del 23 a las 22 UTC al 23 a las 24 UTC
Viento 2 kt con dirección variable

TAF: HLLM 230500Z 2306/2406 08014KT 8000 NSC BECMG 2322/2324 VRB02KT

Observaciones y pronósticos meteorológicos de más de 4000 aeropuertos (mensajes METAR y TAF).

Los puntos amarillos y rojos representan las estaciones disponibles.

Ponga el ratón en el punto deseado para ver el nombre de la estación.

Haga clic para ver las observaciones y los pronósticos meteorológicos.

Para cambiar el mapa : haga clic en los botones verdes con una cruz de color negro para hacer un zoom, en el botón verde con un guión para alejar o en las flechas verdes para mapas adyacentes.


METAR-TAF: